createdAt,value
2022-12-24T00:01:22.337Z,65.21
2022-12-24T00:03:50.293Z,64.56
2022-12-24T00:06:23.543Z,64.70
2022-12-24T00:08:54.269Z,64.16
2022-12-24T00:11:22.336Z,64.60
2022-12-24T00:13:50.065Z,65.42
2022-12-24T00:16:17.781Z,64.69
2022-12-24T00:18:48.013Z,66.35
2022-12-24T00:21:16.541Z,65.67
2022-12-24T00:23:44.234Z,65.13
2022-12-24T00:26:12.693Z,64.89
2022-12-24T00:28:40.899Z,65.55
2022-12-24T00:31:12.908Z,65.27
2022-12-24T00:33:40.780Z,64.60
2022-12-24T00:36:09.930Z,64.65
2022-12-24T00:38:38.139Z,65.08
2022-12-24T00:41:25.153Z,65.34
2022-12-24T00:44:01.975Z,65.86
2022-12-24T00:46:32.661Z,65.74
2022-12-24T00:49:01.042Z,65.59
2022-12-24T00:51:29.202Z,65.47
2022-12-24T00:53:57.066Z,64.88
2022-12-24T00:56:24.609Z,65.30
2022-12-24T00:58:52.195Z,64.86
2022-12-24T01:01:20.320Z,64.14
2022-12-24T01:03:48.334Z,63.76
2022-12-24T01:06:18.633Z,64.28
2022-12-24T01:08:46.811Z,63.57
2022-12-24T01:11:14.481Z,63.00
2022-12-24T01:13:42.039Z,63.22
2022-12-24T01:16:18.960Z,63.12
2022-12-24T01:18:46.792Z,61.65
2022-12-24T01:21:15.113Z,63.00
2022-12-24T01:23:42.810Z,63.06
2022-12-24T01:26:12.515Z,63.21
2022-12-24T01:28:40.191Z,61.77
2022-12-24T01:31:15.649Z,62.36
2022-12-24T01:33:43.999Z,61.98
2022-12-24T01:36:12.909Z,62.88
2022-12-24T01:38:41.005Z,62.67
2022-12-24T01:41:32.370Z,62.62
2022-12-24T01:43:59.898Z,62.70
2022-12-24T01:46:32.093Z,62.49
2022-12-24T01:49:02.845Z,62.99
2022-12-24T01:51:39.266Z,62.80
2022-12-24T01:54:18.124Z,62.32
2022-12-24T01:56:49.321Z,62.21
2022-12-24T01:59:19.551Z,62.71
2022-12-24T02:01:50.206Z,63.09
2022-12-24T02:04:34.411Z,63.97
2022-12-24T02:07:02.458Z,62.74
2022-12-24T02:09:30.563Z,63.36
2022-12-24T02:11:59.069Z,62.72
2022-12-24T02:14:28.660Z,62.82
2022-12-24T02:17:01.993Z,62.46
2022-12-24T02:19:35.819Z,63.55
2022-12-24T02:22:15.186Z,63.25
2022-12-24T02:25:07.426Z,62.28
2022-12-24T02:27:42.586Z,61.08
2022-12-24T02:30:39.135Z,61.49
2022-12-24T02:33:18.531Z,60.88
2022-12-24T02:35:56.581Z,62.15
2022-12-24T02:38:33.312Z,60.96
2022-12-24T02:41:18.219Z,60.69
2022-12-24T02:43:48.976Z,60.37
2022-12-24T02:46:29.677Z,61.28
2022-12-24T02:48:59.667Z,60.96
2022-12-24T02:51:27.474Z,60.67
2022-12-24T02:53:55.339Z,60.79
2022-12-24T02:56:49.634Z,62.54
2022-12-24T02:59:57.150Z,62.05
2022-12-24T03:02:50.794Z,62.11
2022-12-24T03:05:21.040Z,61.57
2022-12-24T03:08:13.942Z,62.27
2022-12-24T03:10:56.656Z,61.63
2022-12-24T03:13:25.839Z,60.37
2022-12-24T03:15:53.533Z,60.18
2022-12-24T03:18:25.477Z,60.54
2022-12-24T03:21:14.727Z,60.37
2022-12-24T03:23:43.275Z,59.87
2022-12-24T03:26:13.470Z,59.88
2022-12-24T03:28:42.286Z,59.78
2022-12-24T03:31:10.771Z,59.25
2022-12-24T03:33:39.285Z,59.45
2022-12-24T03:36:08.246Z,59.52
2022-12-24T03:38:36.118Z,58.87
2022-12-24T03:41:04.325Z,59.17
2022-12-24T03:43:32.368Z,59.07
2022-12-24T03:46:04.637Z,59.68
2022-12-24T03:48:34.624Z,59.16
2022-12-24T03:51:03.269Z,58.79
2022-12-24T03:53:31.282Z,58.78
2022-12-24T03:55:58.963Z,58.75
2022-12-24T03:58:26.591Z,58.67
2022-12-24T04:00:54.759Z,59.65
2022-12-24T04:03:22.524Z,59.78
2022-12-24T04:06:04.686Z,59.82
2022-12-24T04:08:32.639Z,59.98
2022-12-24T04:11:04.719Z,60.59
2022-12-24T04:13:35.782Z,59.80
2022-12-24T04:16:09.210Z,60.47
2022-12-24T04:18:37.533Z,59.49
2022-12-24T04:21:05.689Z,59.71
2022-12-24T04:23:35.046Z,60.44
2022-12-24T04:26:04.803Z,60.58
2022-12-24T04:28:34.000Z,60.09
2022-12-24T04:31:02.701Z,60.10
2022-12-24T04:33:30.640Z,59.78
2022-12-24T04:35:59.075Z,60.98
2022-12-24T04:38:26.834Z,60.15
2022-12-24T04:41:10.658Z,60.10
2022-12-24T04:43:38.153Z,59.28
2022-12-24T04:46:18.931Z,61.54
2022-12-24T04:48:51.963Z,59.80
2022-12-24T04:51:20.645Z,59.33
2022-12-24T04:53:48.861Z,59.04
2022-12-24T04:56:22.446Z,58.97
2022-12-24T04:58:50.610Z,57.71
2022-12-24T05:01:24.021Z,58.96
2022-12-24T05:03:52.732Z,58.80
2022-12-24T05:06:27.430Z,59.35
2022-12-24T05:08:56.521Z,58.50
2022-12-24T05:11:24.906Z,58.69
2022-12-24T05:13:52.763Z,59.86
2022-12-24T05:16:22.257Z,60.80
2022-12-24T05:18:50.300Z,59.50
2022-12-24T05:21:22.217Z,60.64
2022-12-24T05:24:08.529Z,60.74
2022-12-24T05:26:38.652Z,60.42
2022-12-24T05:29:07.316Z,59.02
2022-12-24T05:31:36.406Z,60.00
2022-12-24T05:34:04.060Z,59.47
2022-12-24T05:36:31.592Z,59.52
2022-12-24T05:38:59.423Z,60.46
2022-12-24T05:41:27.187Z,60.34
2022-12-24T05:43:54.838Z,59.82
2022-12-24T05:46:24.075Z,59.63
2022-12-24T05:48:53.127Z,60.11
2022-12-24T05:51:22.719Z,60.35
2022-12-24T05:53:51.622Z,59.90
2022-12-24T05:56:24.512Z,60.59
2022-12-24T05:58:53.937Z,60.15
2022-12-24T06:01:23.148Z,60.34
2022-12-24T06:03:51.803Z,60.11
2022-12-24T06:06:24.722Z,60.43
2022-12-24T06:09:13.964Z,60.80
2022-12-24T06:11:41.591Z,59.33
2022-12-24T06:14:09.050Z,60.18
2022-12-24T06:16:36.588Z,59.36
2022-12-24T06:19:04.181Z,59.96
2022-12-24T06:21:31.669Z,59.57
2022-12-24T06:23:59.190Z,60.10
2022-12-24T06:26:26.599Z,59.90
2022-12-24T06:28:54.486Z,59.09
2022-12-24T06:31:23.993Z,59.14
2022-12-24T06:33:52.909Z,59.13
2022-12-24T06:36:23.569Z,58.18
2022-12-24T06:38:52.423Z,58.11
2022-12-24T06:41:20.472Z,58.77
2022-12-24T06:43:50.355Z,58.35
2022-12-24T06:46:19.592Z,58.29
2022-12-24T06:48:47.917Z,57.66
2022-12-24T06:51:17.563Z,58.59
2022-12-24T06:53:45.080Z,58.70
2022-12-24T06:56:14.252Z,59.25
2022-12-24T06:58:42.511Z,58.39
2022-12-24T07:01:13.777Z,58.96
2022-12-24T07:03:41.848Z,59.13
2022-12-24T07:06:35.092Z,59.61
2022-12-24T07:09:02.598Z,58.16
2022-12-24T07:11:30.095Z,57.95
2022-12-24T07:13:57.586Z,59.01
2022-12-24T07:16:25.089Z,59.01
2022-12-24T07:18:52.556Z,58.38
2022-12-24T07:21:20.108Z,59.28
2022-12-24T07:23:47.745Z,58.70
2022-12-24T07:26:15.222Z,58.42
2022-12-24T07:28:42.668Z,58.37
2022-12-24T07:31:10.201Z,58.05
2022-12-24T07:33:37.767Z,58.05
2022-12-24T07:36:07.489Z,58.05
2022-12-24T07:38:35.492Z,57.84
2022-12-24T07:41:03.126Z,57.93
2022-12-24T07:43:33.308Z,59.01
2022-12-24T07:46:00.915Z,57.79
2022-12-24T07:48:29.942Z,56.59
2022-12-24T07:50:57.998Z,55.95
2022-12-24T07:53:27.356Z,56.85
2022-12-24T07:55:55.587Z,55.75
2022-12-24T07:58:23.703Z,56.77
2022-12-24T08:00:56.860Z,56.19
2022-12-24T08:03:24.616Z,55.87
2022-12-24T08:05:53.078Z,56.22
2022-12-24T08:08:21.658Z,56.21
2022-12-24T08:10:52.215Z,56.05
2022-12-24T08:13:20.165Z,55.78
2022-12-24T08:15:47.863Z,55.94
2022-12-24T08:18:15.505Z,55.85
2022-12-24T08:20:43.074Z,56.67
2022-12-24T08:23:10.690Z,56.21
2022-12-24T08:25:42.127Z,57.07
2022-12-24T08:28:12.964Z,57.00
2022-12-24T08:30:40.524Z,56.93
2022-12-24T08:33:08.515Z,57.82
2022-12-24T08:35:38.742Z,57.70
2022-12-24T08:38:09.634Z,57.97
2022-12-24T08:40:39.602Z,57.38
2022-12-24T08:43:07.090Z,57.91
2022-12-24T08:45:39.920Z,57.93
2022-12-24T08:48:09.839Z,58.10
2022-12-24T08:50:40.172Z,68.17
2022-12-24T08:53:10.977Z,63.69
2022-12-24T08:55:39.777Z,61.29
2022-12-24T08:58:07.270Z,61.20
2022-12-24T09:00:34.866Z,60.01
2022-12-24T09:03:02.497Z,58.43
2022-12-24T09:05:30.087Z,58.75
2022-12-24T09:07:57.708Z,58.07
2022-12-24T09:10:25.529Z,58.16
2022-12-24T09:12:52.919Z,57.54
2022-12-24T09:15:20.505Z,57.81
2022-12-24T09:17:48.004Z,56.69
2022-12-24T09:20:15.504Z,56.72
2022-12-24T09:22:42.983Z,57.77
2022-12-24T09:25:13.328Z,56.81
2022-12-24T09:27:40.781Z,56.41
2022-12-24T09:30:09.287Z,56.67
2022-12-24T09:32:36.915Z,55.80
2022-12-24T09:35:04.717Z,61.16
2022-12-24T09:37:32.958Z,60.12
2022-12-24T09:40:00.347Z,59.91
2022-12-24T09:42:51.972Z,60.45
2022-12-24T09:45:32.120Z,58.73
2022-12-24T09:48:05.925Z,57.86
2022-12-24T09:50:40.566Z,57.51
2022-12-24T09:53:29.777Z,56.86
2022-12-24T09:56:00.266Z,56.27
2022-12-24T09:58:37.420Z,56.02
2022-12-24T10:01:05.087Z,55.09
2022-12-24T10:03:33.155Z,55.77
2022-12-24T10:06:26.824Z,57.10
2022-12-24T10:09:33.695Z,55.98
2022-12-24T10:12:17.701Z,57.80
2022-12-24T10:14:48.141Z,56.30
2022-12-24T10:17:30.783Z,56.51
2022-12-24T10:20:22.740Z,55.60
2022-12-24T10:23:38.000Z,55.63
2022-12-24T10:26:27.930Z,55.11
2022-12-24T10:29:24.105Z,54.70
2022-12-24T10:32:10.257Z,55.13
2022-12-24T10:34:44.274Z,55.03
2022-12-24T10:37:17.944Z,54.65
2022-12-24T10:39:45.517Z,55.43
2022-12-24T10:42:15.771Z,54.71
2022-12-24T10:44:48.106Z,54.96
2022-12-24T10:47:18.134Z,54.50
2022-12-24T10:49:49.346Z,54.35
2022-12-24T10:52:22.582Z,53.86
2022-12-24T10:55:11.680Z,53.80
2022-12-24T10:57:41.125Z,53.46
2022-12-24T11:00:20.295Z,53.57
2022-12-24T11:02:49.555Z,52.99
2022-12-24T11:05:33.032Z,53.17
2022-12-24T11:08:05.041Z,53.52
2022-12-24T11:10:36.188Z,52.74
2022-12-24T11:13:36.118Z,52.73
2022-12-24T11:16:08.030Z,54.35
2022-12-24T11:18:39.160Z,53.18
2022-12-24T11:21:07.092Z,53.26
2022-12-24T11:23:34.969Z,53.59
2022-12-24T11:26:02.759Z,53.51
2022-12-24T11:28:35.477Z,53.00
2022-12-24T11:31:06.109Z,52.93
2022-12-24T11:33:47.483Z,53.60
2022-12-24T11:36:16.722Z,52.29
2022-12-24T11:38:57.225Z,53.40
2022-12-24T11:41:26.638Z,53.04
2022-12-24T11:44:08.049Z,53.25
2022-12-24T11:46:41.874Z,53.16
2022-12-24T11:49:12.318Z,53.16
2022-12-24T11:51:41.327Z,52.77
2022-12-24T11:54:17.339Z,53.01
2022-12-24T11:56:52.686Z,53.38
2022-12-24T11:59:37.091Z,53.37
2022-12-24T12:02:16.606Z,52.46
2022-12-24T12:04:49.129Z,53.11
2022-12-24T12:07:37.852Z,53.51
2022-12-24T12:10:37.552Z,53.58
2022-12-24T12:13:33.724Z,54.68
2022-12-24T12:17:09.652Z,53.96
2022-12-24T12:19:55.252Z,53.64
2022-12-24T12:22:42.669Z,54.42
2022-12-24T12:25:22.216Z,54.32
2022-12-24T12:27:53.539Z,54.31
2022-12-24T12:30:23.195Z,53.95
2022-12-24T12:33:04.860Z,53.87
2022-12-24T12:35:42.132Z,54.90
2022-12-24T12:38:25.506Z,54.81
2022-12-24T12:41:14.420Z,54.15
2022-12-24T12:44:04.523Z,54.97
2022-12-24T12:46:50.596Z,55.99
2022-12-24T12:49:27.285Z,54.24
2022-12-24T12:52:13.935Z,54.66
2022-12-24T12:55:23.925Z,55.57
2022-12-24T12:57:58.250Z,54.49
2022-12-24T13:00:27.244Z,55.06
2022-12-24T13:03:30.500Z,56.03
2022-12-24T13:06:07.267Z,55.55
2022-12-24T13:08:45.135Z,56.86
2022-12-24T13:11:41.172Z,55.24
2022-12-24T13:14:34.749Z,56.13
2022-12-24T13:18:05.904Z,56.32
2022-12-24T13:20:37.165Z,55.37
2022-12-24T13:23:18.611Z,55.92
2022-12-24T13:25:57.673Z,55.51
2022-12-24T13:28:25.363Z,55.73
2022-12-24T13:31:15.267Z,57.32
2022-12-24T13:33:42.764Z,55.75
2022-12-24T13:36:17.206Z,56.24
2022-12-24T13:38:50.822Z,56.10
2022-12-24T13:41:41.459Z,57.17
2022-12-24T13:44:19.526Z,55.48
2022-12-24T13:47:25.352Z,56.35
2022-12-24T13:50:12.780Z,55.54
2022-12-24T13:52:52.787Z,55.89
2022-12-24T13:55:21.043Z,55.38
2022-12-24T13:58:04.507Z,56.54
2022-12-24T14:00:57.131Z,56.98
2022-12-24T14:03:45.560Z,56.59
2022-12-24T14:06:27.135Z,56.84
2022-12-24T14:09:27.430Z,55.96
2022-12-24T14:11:57.871Z,55.78
2022-12-24T14:14:34.271Z,56.35
2022-12-24T14:17:09.355Z,55.31
2022-12-24T14:19:42.124Z,56.02
2022-12-24T14:22:12.575Z,55.68
2022-12-24T14:24:44.464Z,55.93
2022-12-24T14:27:32.940Z,55.63
2022-12-24T14:30:09.066Z,55.76
2022-12-24T14:32:38.715Z,55.86
2022-12-24T14:35:31.277Z,56.36
2022-12-24T14:38:03.999Z,56.11
2022-12-24T14:40:34.894Z,56.59
2022-12-24T14:43:25.777Z,56.57
2022-12-24T14:46:24.230Z,56.39
2022-12-24T14:49:19.168Z,56.45
2022-12-24T14:51:58.699Z,56.87
2022-12-24T14:54:41.718Z,56.17
2022-12-24T14:57:12.091Z,56.69
2022-12-24T14:59:45.503Z,56.38
2022-12-24T15:02:39.900Z,56.46
2022-12-24T15:05:19.998Z,56.92
2022-12-24T15:07:58.455Z,58.06
2022-12-24T15:10:33.607Z,56.89
2022-12-24T15:13:21.245Z,56.77
2022-12-24T15:15:52.853Z,57.11
2022-12-24T15:18:28.877Z,57.45
2022-12-24T15:21:04.062Z,57.75
2022-12-24T15:23:36.847Z,57.81
2022-12-24T15:26:09.423Z,58.54
2022-12-24T15:28:39.327Z,57.29
2022-12-24T15:31:15.508Z,57.43
2022-12-24T15:33:47.690Z,57.32
2022-12-24T15:36:20.916Z,56.42
2022-12-24T15:38:54.228Z,56.21
2022-12-24T15:41:28.023Z,55.67
2022-12-24T15:44:01.644Z,56.73
2022-12-24T15:46:31.412Z,55.61
2022-12-24T15:49:03.026Z,55.92
2022-12-24T15:51:40.566Z,56.57
2022-12-24T15:54:18.858Z,57.05
2022-12-24T15:56:47.497Z,56.55
2022-12-24T15:59:28.382Z,56.66
2022-12-24T16:01:56.038Z,56.32
2022-12-24T16:04:26.795Z,56.56
2022-12-24T16:07:05.046Z,57.13
2022-12-24T16:09:43.546Z,56.01
2022-12-24T16:12:23.545Z,56.72
2022-12-24T16:14:57.974Z,57.16
2022-12-24T16:17:28.865Z,56.73
2022-12-24T16:20:01.036Z,56.62
2022-12-24T16:22:35.489Z,56.00
2022-12-24T16:25:26.626Z,56.09
2022-12-24T16:27:58.418Z,55.71
2022-12-24T16:30:27.875Z,55.71
2022-12-24T16:32:55.361Z,56.23
2022-12-24T16:35:27.991Z,56.13
2022-12-24T16:37:56.339Z,55.95
2022-12-24T16:40:27.724Z,55.81
2022-12-24T16:43:16.974Z,56.54
2022-12-24T16:45:46.349Z,55.75
2022-12-24T16:48:23.798Z,56.17
2022-12-24T16:50:52.842Z,56.09
2022-12-24T16:53:22.269Z,56.35
2022-12-24T16:55:51.854Z,56.17
2022-12-24T16:58:20.357Z,56.65
2022-12-24T17:00:48.467Z,56.54
2022-12-24T17:03:16.248Z,56.21
2022-12-24T17:05:44.997Z,55.88
2022-12-24T17:08:13.321Z,55.65
2022-12-24T17:10:41.293Z,55.54
2022-12-24T17:13:08.869Z,55.69
2022-12-24T17:15:36.344Z,55.57
2022-12-24T17:18:04.023Z,55.41
2022-12-24T17:20:31.526Z,55.22
2022-12-24T17:22:59.184Z,55.01
2022-12-24T17:25:26.730Z,55.07
2022-12-24T17:27:54.237Z,54.82
2022-12-24T17:30:21.726Z,54.96
2022-12-24T17:32:49.306Z,54.34
2022-12-24T17:35:16.809Z,54.56
2022-12-24T17:37:44.429Z,54.42
2022-12-24T17:40:12.425Z,54.97
2022-12-24T17:42:39.980Z,54.74
2022-12-24T17:45:07.818Z,54.68
2022-12-24T17:47:35.276Z,54.10
2022-12-24T17:50:03.025Z,54.06
2022-12-24T17:52:31.086Z,54.31
2022-12-24T17:54:58.702Z,54.20
2022-12-24T17:57:26.235Z,54.49
2022-12-24T17:59:53.890Z,54.59
2022-12-24T18:02:21.850Z,54.66
2022-12-24T18:04:49.746Z,54.59
2022-12-24T18:07:17.400Z,54.58
2022-12-24T18:09:45.641Z,54.49
2022-12-24T18:12:14.190Z,54.93
2022-12-24T18:14:41.645Z,54.62
2022-12-24T18:17:09.205Z,54.84
2022-12-24T18:19:36.697Z,54.85
2022-12-24T18:22:04.169Z,54.62
2022-12-24T18:24:31.666Z,54.58
2022-12-24T18:26:59.463Z,54.88
2022-12-24T18:29:27.022Z,55.04
2022-12-24T18:31:54.552Z,55.26
2022-12-24T18:34:22.457Z,55.18
2022-12-24T18:36:55.126Z,54.97
2022-12-24T18:39:23.526Z,55.12
2022-12-24T18:41:51.505Z,55.05
2022-12-24T18:44:24.629Z,55.09
2022-12-24T18:46:52.947Z,55.08
2022-12-24T18:49:20.553Z,54.46
2022-12-24T18:51:47.983Z,55.06
2022-12-24T18:54:59.123Z,55.42
2022-12-24T18:57:26.781Z,55.40
2022-12-24T18:59:56.915Z,55.68
2022-12-24T19:02:27.619Z,55.61
2022-12-24T19:04:55.183Z,55.89
2022-12-24T19:07:22.701Z,56.05
2022-12-24T19:09:50.193Z,56.28
2022-12-24T19:12:17.789Z,56.19
2022-12-24T19:14:45.279Z,56.62
2022-12-24T19:17:12.760Z,56.30
2022-12-24T19:19:40.292Z,56.53
2022-12-24T19:22:07.840Z,56.09
2022-12-24T19:24:35.321Z,56.01
2022-12-24T19:27:02.881Z,56.05
2022-12-24T19:29:30.481Z,56.05
2022-12-24T19:31:58.102Z,55.74
2022-12-24T19:34:25.666Z,56.16
2022-12-24T19:36:53.189Z,55.52
2022-12-24T19:39:23.147Z,55.63
2022-12-24T19:41:54.292Z,55.51
2022-12-24T19:44:21.762Z,55.41
2022-12-24T19:46:49.209Z,55.14
2022-12-24T19:49:16.709Z,54.95
2022-12-24T19:51:44.221Z,55.58
2022-12-24T19:54:18.652Z,55.36
2022-12-24T19:56:47.402Z,55.38
2022-12-24T19:59:14.922Z,55.57
2022-12-24T20:01:42.546Z,55.47
2022-12-24T20:04:10.791Z,55.41
2022-12-24T20:06:39.725Z,55.10
2022-12-24T20:09:08.368Z,55.15
2022-12-24T20:11:36.266Z,54.76
2022-12-24T20:14:05.326Z,54.18
2022-12-24T20:16:33.379Z,54.24
2022-12-24T20:19:03.845Z,54.70
2022-12-24T20:21:32.372Z,54.60
2022-12-24T20:23:59.864Z,54.26
2022-12-24T20:26:29.312Z,54.61
2022-12-24T20:28:57.125Z,53.91
2022-12-24T20:31:29.675Z,53.38
2022-12-24T20:33:59.683Z,53.29
2022-12-24T20:36:29.276Z,53.33
2022-12-24T20:38:58.060Z,52.54
2022-12-24T20:41:27.912Z,52.90
2022-12-24T20:43:57.282Z,52.81
2022-12-24T20:46:24.812Z,52.61
2022-12-24T20:48:52.752Z,52.34
2022-12-24T20:51:25.462Z,52.92
2022-12-24T20:53:55.821Z,52.19
2022-12-24T20:56:24.665Z,51.82
2022-12-24T20:58:52.587Z,52.16
2022-12-24T21:01:26.132Z,52.48
2022-12-24T21:03:55.503Z,51.79
2022-12-24T21:06:24.945Z,51.86
2022-12-24T21:08:53.832Z,51.89
2022-12-24T21:11:40.691Z,51.71
2022-12-24T21:14:08.722Z,51.61
2022-12-24T21:16:37.639Z,51.68
2022-12-24T21:19:06.904Z,51.25
2022-12-24T21:21:35.252Z,51.63
2022-12-24T21:24:03.283Z,51.54
2022-12-24T21:26:32.321Z,51.93
2022-12-24T21:29:00.242Z,51.86
2022-12-24T21:31:28.572Z,51.61
2022-12-24T21:33:56.481Z,51.67
2022-12-24T21:36:24.435Z,51.74
2022-12-24T21:38:51.932Z,52.01
2022-12-24T21:41:22.010Z,52.51
2022-12-24T21:43:49.808Z,52.13
2022-12-24T21:46:20.268Z,52.47
2022-12-24T21:49:06.423Z,52.15
2022-12-24T21:51:33.959Z,52.58
2022-12-24T21:54:20.171Z,52.38
2022-12-24T21:57:06.127Z,52.28
2022-12-24T21:59:33.735Z,52.41
2022-12-24T22:02:01.480Z,52.26
2022-12-24T22:04:31.002Z,52.44
2022-12-24T22:07:17.529Z,52.61
2022-12-24T22:10:03.415Z,52.98
2022-12-24T22:12:34.524Z,53.03
2022-12-24T22:15:02.481Z,52.52
2022-12-24T22:17:31.488Z,52.44
2022-12-24T22:19:58.915Z,52.47
2022-12-24T22:22:26.408Z,53.05
2022-12-24T22:24:53.836Z,53.13
2022-12-24T22:27:21.408Z,53.14
2022-12-24T22:29:49.021Z,53.16
2022-12-24T22:32:16.560Z,53.19
2022-12-24T22:34:44.089Z,53.03
2022-12-24T22:37:11.650Z,53.09
2022-12-24T22:39:39.386Z,52.30
2022-12-24T22:42:06.945Z,52.32
2022-12-24T22:44:34.552Z,52.39
2022-12-24T22:47:02.094Z,52.02
2022-12-24T22:49:29.617Z,51.81
2022-12-24T22:51:58.355Z,51.51
2022-12-24T22:54:26.217Z,51.45
2022-12-24T22:56:53.664Z,51.55
2022-12-24T22:59:21.126Z,51.80
2022-12-24T23:01:48.926Z,52.21
2022-12-24T23:04:16.497Z,52.47
2022-12-24T23:06:44.959Z,52.22
2022-12-24T23:09:16.024Z,53.49
2022-12-24T23:11:44.641Z,53.39
2022-12-24T23:14:38.538Z,54.72
2022-12-24T23:17:06.572Z,53.43
2022-12-24T23:19:34.159Z,53.95
2022-12-24T23:22:02.833Z,54.18
2022-12-24T23:24:30.591Z,54.02
2022-12-24T23:26:59.095Z,54.24
2022-12-24T23:29:26.535Z,54.27
2022-12-24T23:31:54.016Z,54.58
2022-12-24T23:34:21.504Z,54.47
2022-12-24T23:36:49.196Z,54.48
2022-12-24T23:39:16.695Z,54.32
2022-12-24T23:41:44.218Z,54.36
2022-12-24T23:44:11.680Z,54.67
2022-12-24T23:46:39.177Z,54.30
2022-12-24T23:49:06.832Z,54.46
2022-12-24T23:51:34.256Z,54.32
2022-12-24T23:54:01.801Z,54.38
2022-12-24T23:56:29.306Z,54.66
2022-12-24T23:58:56.836Z,54.70
